METAR Data
IDs: Format: Raw Decoded Include TAF

Data at: 2355 UTC 18 Oct 2019

FNLU 182300Z /////KT 9999 SCT020 24/22 Q1011 NOSIG

TAF FNLU 182300Z 1900/2006 16006KT 9999 BKN020 FEW023CB
  TEMPO 1904/1910 8000
  BECMG 1911/1913 27010KT 9999 FEW020 BKN025
  BECMG 1919/1921 20007KT


No METAR found for FNCA

TAF FNCA 182300Z 1900/1912 23007KT 9999 SCT022
  PROB30
  TEMPO 1901/1906 8000 DZ SCT010 BKN020
  TEMPO 1906/1912 3000 TSRA SCT010 FEW018CB


No METAR found for FNBG

TAF FNBG 182300Z 1900/1912 22006KT 9999 FEW015 BKN020 FEW022CB
  TEMPO 1908/1912 28010KT


No METAR found for FNHU

TAF FNHU 182300Z 1900/1912 24005KT 9999 SCT020
  TEMPO 1903/1909 VRB03KT 5000 BR BKN015


No METAR found for FNUE

TAF FNUE 182300Z 1900/1912 27005KT CAVOK
  TEMPO 1908/1912 34006KT 9999 FEW022 SCT030


No METAR found for FNGI

TAF FNGI 182300Z 1900/1912 23005KT 9999 FEW020
  BECMG 1907/1909 07008KT CAVOK


No METAR found for FNUB

TAF FNUB 182300Z 1900/1912 25006KT CAVOK
  TEMPO 1908/1912 09008KT 9999 SCT022


No METAR found for FNMO

TAF FNMO 182300Z 1900/1912 21005KT 9999 BKN015
  TEMPO 1907/1911 29012KT FEW016


No METAR found for FNUG
No TAF found for FNUG

No METAR found for FNMA

TAF FNMA 182300Z 1900/1912 27005KT 9000 BKN015
  TEMPO 1902/1907 VRB03KT


No METAR found for FNSA

TAF FNSA 182300Z 1900/1912 VRB03KT 9999 BKN022
  PROB30
  TEMPO 1902/1907 03005KT 5000 BR


No METAR found for FNSO

TAF FNSO 182300Z 1900/1912 19006KT 9000 SCT018
  TEMPO 1906/1912 25008KT 4000 -TSRA BKN008 FEW020CB


No METAR found for FNBC
No TAF found for FNBC

No METAR found for FNSU
No TAF found for FNSU

No METAR found for FNDU

TAF FNDU 182300Z 1900/1912 VRB03KT 7000 SCT022 FEW028CB
  TEMPO 1901/1907 3000 SHRA BKN012
  BECMG 1910/1912 9999


No METAR found for FNME

TAF FNME 182300Z 1900/1912 04006KT CAVOK

No METAR found for FNCT

TAF FNCT 182300Z 1900/1912 23005KT 8000 SCT015 BKN022
  BECMG 1910/1912 29010KT


No METAR found for FNKU

TAF FNKU 182300Z 1900/1912 26005KT 9999 FEW022
  BECMG 1905/1907 07006KT